Aérodrome :
LOGIN :

S'inscrire | Disclaimer

   EN    FR    IT 

 










Légende :    VFR   VFR Marginal   IFR   IFR Intensif   IFR Très Intensif
Visi : 
Plafond : 
>= 8 km
>= 3000ft
5 à 8 km
1000 à 3000 ft
1500m à 5 km
500 à 1000 ft
800 à 1500m
200 à 500 ft
< 800m
< 200 ft
Symboles :   Orages  Brouillard  Fortes neiges  Fortes précipitations  Vent > 20 kt
SIGMETs :   Divers  Orages  Givrage  Turbulence  Onde Orograph.  Cendres Volcan.






- Altitude de l'aérodrome : 272 ft
- Code IATA : MXN


LFRU - Morlaix-Ploujean

DERNIER METAR :
  • 161030Z AUTO 06009KT 020V100 9999 FEW037 BKN047 10/01 Q1029

METARs EXPIRÉS :
  • 161000Z AUTO 05010KT 9999 BKN037 BKN044 10/02 Q1029
  • 160930Z AUTO 06011KT 9999 BKN036 10/02 Q1029
  • 160900Z AUTO 06011KT 9999 BKN033 09/02 Q1029
  • 160830Z AUTO 06009KT 020V080 9999 FEW028 09/02 Q1029
  • 160800Z AUTO 06006KT CAVOK 07/02 Q1028

TAF N/A



MET'MAP, la Météo Aéronautique d'un coup d'oeil ! - Copyright ORBIFLY Décembre 2007 - Disclaimer

ORBIFLY MET'MAP TEAM :

Programmation & Développement : Alexandra Zaïnal
Sur une idée originale de : Baudouin d'Aumeries
Assistance à la programmation : Marc-Olivier Méhu
Soutien technique & logistique : Manuel Goepfert

Contact : metmap@orbifly.com




SOURCES & CREDITS :

   NOAA